Station: Oenpelli Airport  

  Atmospheric Gas Attenuation - ITU Rec 676-11   ----------------- dB/100km -----------------
Date Time Temp RH % AH g/m3 Dew Point Wind Direction Speed kph Gust kph Barometer mB Rainfall Since 9am 24GHz 47GHz 76GHz 122GHz 134GHz 241GHz
04/09 04:20 24.3 82 18.15 21 6 7 1015.2 0 39.2 38.8 74.0 195.7 214.1 743.4
04/09 04:10 24.4 82 18.25 21.1 7 9 1015.2 0 39.4 39.0 74.4 196.7 215.3 747.7
04/09 04:00 24.6 82 18.46 21.3 9 13 1015.2 0 39.8 39.3 75.2 198.8 217.9 756.9
04/09 03:50 24.6 82 18.46 21.3 9 13 1015.2 0 39.8 39.3 75.2 198.8 217.9 756.9
04/09 03:40 24.6 83 18.68 21.5 11 19 1015.3 0 40.3 39.7 76.2 201.6 221.3 768.7
04/09 03:30 24.8 82 18.66 21.5 13 20 1015.2 0 40.2 39.6 75.9 200.8 220.4 765.6
04/09 03:20 24.9 82 18.77 21.6 9 15 1015.2 0 40.5 39.7 76.3 201.9 221.8 770.5
04/09 03:10 25 82 18.88 21.7 11 15 1015.3 0 40.7 39.9 76.8 203.0 223.2 775.4
04/09 03:00 25 82 18.88 21.7 11 19 1015.3 0 40.7 39.9 76.8 203.0 223.2 775.4
04/09 02:50 25.1 82 18.98 21.8 11 13 1015.4 0 40.9 40.0 77.1 204.0 224.5 779.8
04/09 02:40 24.9 83 19 21.8 7 9 1015.5 0 41.0 40.2 77.4 204.8 225.4 783.0
04/09 02:30 24.6 85 19.13 21.9 6 11 1015.6 0 41.3 40.6 78.4 207.3 228.4 793.2
04/09 02:20 24.4 85 18.92 21.7 6 7 1015.6 0 40.8 40.3 77.6 205.2 225.7 783.9
04/09 02:10 24.2 86 18.92 21.7 6 7 1015.7 0 40.9 40.4 77.8 205.7 226.3 786.0
04/09 02:00 24.1 86 18.82 21.6 7 9 1015.8 0 40.7 40.2 77.4 204.8 225.1 781.7
04/09 01:50 24.1 86 18.82 21.6 6 7 1015.8 0 40.7 40.2 77.4 204.8 225.1 781.7
04/09 01:40 24.2 85 18.7 21.5 6 9 1015.9 0 40.4 40.0 76.8 203.0 222.9 774.2
04/09 01:30 24.1 85 18.6 21.4 6 9 1015.9 0 40.2 39.8 76.4 202.0 221.7 769.8
04/09 01:20 24.1 84 18.38 21.2 6 6 1016 0 39.7 39.4 75.3 199.2 218.3 758.1
04/09 01:10 24.1 84 18.38 21.2 6 7 1016.2 0 39.7 39.4 75.4 199.3 218.3 758.2
04/09 01:00 24.1 84 18.38 21.2 6 9 1016.3 0 39.7 39.4 75.4 199.3 218.3 758.2
04/09 00:50 24.1 83 18.16 21 6 7 1016.3 0 39.2 39.0 74.3 196.5 215.0 746.4
04/09 00:40 24.3 82 18.15 21 6 9 1016.4 0 39.2 38.9 74.1 195.9 214.2 744.0
04/09 00:30 24.4 82 18.25 21.1 7 9 1016.4 0 39.4 39.0 74.5 196.9 215.5 748.3
04/09 00:20 24.4 82 18.25 21.1 7 11 1016.5 0 39.4 39.0 74.5 196.9 215.5 748.4
04/09 00:10 24.5 81 18.13 21 9 13 1016.5 0 39.1 38.8 73.8 195.1 213.4 741.0
04/09 00:00 24.5 81 18.13 21 9 13 1016.5 0 39.1 38.8 73.8 195.1 213.4 741.0
03/09 23:50 24.5 80 17.9 20.8 9 13 1016.5 0 38.7 38.3 72.7 192.3 209.9 728.8
03/09 23:40 24.4 80 17.8 20.7 7 11 1016.5 0 38.4 38.2 72.4 191.3 208.6 724.5
03/09 23:30 24.4 79 17.58 20.5 7 13 1016.5 0 38.0 37.8 71.3 188.6 205.3 713.0
03/09 23:20 24.5 79 17.68 20.6 6 9 1016.4 0 38.2 37.9 71.7 189.6 206.5 717.2
03/09 23:10 24.5 79 17.68 20.6 6 7 1016.4 0 38.2 37.9 71.7 189.6 206.5 717.2
03/09 23:00 24.6 79 17.78 20.7 6 9 1016.3 0 38.4 38.1 72.1 190.5 207.8 721.5
03/09 22:50 24.6 79 17.78 20.7 6 7 1016.3 0 38.4 38.1 72.1 190.5 207.8 721.5
03/09 22:40 24.6 79 17.78 20.7 6 9 1016.4 0 38.4 38.1 72.1 190.6 207.8 721.5
03/09 22:30 24.7 79 17.88 20.8 6 9 1016.3 0 38.6 38.2 72.4 191.5 209.0 725.8
03/09 22:20 24.6 79 17.78 20.7 6 9 1016.3 0 38.4 38.1 72.1 190.5 207.8 721.5
03/09 22:10 24.6 79 17.78 20.7 6 9 1016.3 0 38.4 38.1 72.1 190.5 207.8 721.5
03/09 22:00 24.7 78 17.65 20.6 7 9 1016.3 0 38.1 37.8 71.4 188.7 205.5 713.7
03/09 21:50 24.9 78 17.85 20.8 7 9 1016.3 0 38.5 38.1 72.1 190.6 208.0 722.3
03/09 21:40 24.9 78 17.85 20.8 7 11 1016.2 0 38.5 38.1 72.1 190.6 208.0 722.3
03/09 21:30 25 77 17.72 20.7 9 13 1016.1 0 38.2 37.8 71.4 188.8 205.7 714.5
03/09 21:20 25.1 76 17.59 20.6 7 13 1016 0 37.9 37.5 70.7 186.9 203.5 706.7
03/09 21:10 25 76 17.49 20.5 9 13 1015.9 0 37.7 37.3 70.3 186.0 202.3 702.4
03/09 21:00 25.1 76 17.59 20.6 9 13 1015.8 0 37.9 37.5 70.7 186.9 203.5 706.6
03/09 20:50 25.2 75 17.46 20.5 9 13 1015.6 0 37.7 37.2 70.0 185.1 201.2 698.9
03/09 20:40 25.6 74 17.62 20.6 9 15 1015.4 0 38.0 37.3 70.3 186.0 202.5 703.4
03/09 20:30 25.9 73 17.67 20.7 11 13 1015.2 0 38.0 37.2 70.3 185.8 202.4 703.1
03/09 20:20 26.1 72 17.63 20.7 11 15 1015 0 37.9 37.1 69.9 184.8 201.3 699.1
03/09 20:10 26.2 72 17.73 20.8 11 17 1014.9 0 38.1 37.2 70.3 185.8 202.5 703.2
03/09 20:00 26.4 70 17.43 20.5 9 13 1014.7 0 37.5 36.6 68.7 181.7 197.5 686.1
03/09 19:50 26.8 69 17.56 20.6 11 15 1014.6 0 37.7 36.6 68.9 182.3 198.3 689.0
03/09 19:40 27.1 67 17.34 20.4 13 20 1014.5 0 37.2 36.1 67.7 179.0 194.4 675.2
03/09 19:30 27.6 65 17.29 20.4 15 20 1014.4 0 37.1 35.8 67.0 177.2 192.4 668.3
03/09 19:20 27.9 64 17.31 20.5 15 24 1014.2 0 37.1 35.7 66.9 176.7 191.9 666.6
03/09 19:10 28.3 62 17.14 20.3 17 24 1014.1 0 36.7 35.2 65.8 173.9 188.5 654.8
03/09 19:00 28.6 61 17.14 20.3 19 26 1013.9 0 36.7 35.1 65.5 173.2 187.7 652.2
03/09 18:50 29 59 16.95 20.2 17 24 1013.7 0 36.2 34.6 64.3 170.1 184.1 639.5
03/09 18:40 29.3 55 16.06 19.3 15 24 1013.6 0 34.4 33.0 60.4 159.6 171.2 594.8
03/09 18:30 29.6 54 16.03 19.3 13 19 1013.5 0 34.3 32.8 60.0 158.6 170.1 591.1
03/09 18:20 30.3 52 16.03 19.3 17 22 1013.3 0 34.2 32.6 59.5 157.2 168.6 585.7
03/09 18:10 31 50 16.01 19.4 17 24 1013.2 0 34.1 32.3 58.9 155.6 166.8 579.6
03/09 18:00 31.5 48 15.78 19.2 15 20 1013.1 0 33.6 31.7 57.6 152.2 162.7 565.5
03/09 17:50 32 46 15.53 18.9 15 24 1013 0 33.0 31.1 56.2 148.6 158.5 550.7
03/09 17:40 32.3 45 15.44 18.8 15 20 1012.9 0 32.8 30.9 55.7 147.1 156.7 544.6
03/09 17:30 32.6 43 14.99 18.4 15 22 1012.8 0 31.9 30.1 53.7 141.9 150.5 522.8
03/09 17:20 32.8 42 14.8 18.2 13 19 1012.8 0 31.5 29.7 52.9 139.7 147.7 513.2
03/09 17:10 32.9 42 14.88 18.3 15 20 1012.7 0 31.6 29.8 53.1 140.3 148.5 516.0
03/09 17:00 33.6 40 14.7 18.1 15 20 1012.7 0 31.2 29.3 52.0 137.3 145.0 503.8
03/09 16:50 33.7 40 14.78 18.2 17 22 1012.6 0 31.4 29.4 52.2 137.9 145.8 506.6
03/09 16:40 33.7 40 14.78 18.2 17 24 1012.6 0 31.4 29.4 52.2 137.9 145.8 506.6
03/09 16:30 33.5 41 14.99 18.4 19 24 1012.6 0 31.8 29.8 53.1 140.3 148.7 516.8
03/09 16:20 34.6 38 14.72 18.2 19 26 1012.6 0 31.2 29.0 51.4 135.8 143.4 498.4
03/09 16:10 35.4 29 11.71 14.6 11 24 1012.6 0 24.9 24.5 40.4 106.5 107.6 373.2
03/09 16:00 35.2 30 11.99 15 9 22 1012.6 0 25.5 24.9 41.5 109.2 110.9 384.9
03/09 15:50 35.3 29 11.65 14.6 9 19 1012.7 0 24.8 24.4 40.3 106.1 107.1 371.4
03/09 15:40 35.6 28 11.43 14.3 13 20 1012.8 0 24.4 24.1 39.4 103.8 104.3 361.8
03/09 15:30 35.8 29 11.96 15 9 17 1013 0 25.4 24.7 41.1 108.2 109.8 381.1
03/09 15:20 35.1 29 11.53 14.4 9 22 1013.1 0 24.6 24.3 40.0 105.3 106.1 367.9
03/09 15:10 35.8 28 11.54 14.4 11 19 1013.2 0 24.6 24.2 39.7 104.5 105.3 365.2
03/09 15:00 35.2 29 11.59 14.5 11 19 1013.3 0 24.7 24.4 40.2 105.7 106.6 369.8
03/09 14:50 34.8 31 12.13 15.2 9 20 1013.5 0 25.8 25.3 42.2 111.1 113.1 392.6
03/09 14:40 35.8 29 11.96 15 13 20 1013.6 0 25.4 24.8 41.1 108.3 109.9 381.3
03/09 14:30 35.6 29 11.83 14.8 17 20 1013.8 0 25.2 24.6 40.8 107.4 108.8 377.3
03/09 14:20 35.7 29 11.9 14.9 11 24 1013.8 0 25.3 24.7 41.0 107.9 109.4 379.5
03/09 14:10 35.6 30 12.24 15.3 11 20 1014 0 26.0 25.2 42.2 111.1 113.3 393.2
03/09 14:00 35.2 30 11.99 15 13 24 1014.2 0 25.5 25.0 41.5 109.4 111.1 385.4
03/09 13:50 34.9 31 12.2 15.3 11 19 1014.4 0 26.0 25.4 42.4 111.7 113.9 395.1
03/09 13:40 34.7 31 12.07 15.1 13 22 1014.5 0 25.7 25.2 42.1 110.8 112.7 391.0
03/09 13:30 34.9 31 12.2 15.3 11 17 1014.7 0 26.0 25.4 42.4 111.8 113.9 395.2
03/09 13:20 34.7 31 12.07 15.1 13 22 1014.9 0 25.7 25.2 42.1 110.9 112.7 391.1
03/09 13:10 34.8 31 12.13 15.2 9 19 1014.9 0 25.8 25.3 42.2 111.3 113.3 393.0
03/09 13:00 34.2 31 11.76 14.7 17 24 1015.1 0 25.1 25.0 41.3 108.7 110.0 381.4
03/09 12:50 34.1 32 12.08 15.1 9 26 1015.3 0 25.8 25.4 42.4 111.8 113.7 394.5
03/09 12:40 33.5 33 12.07 15 13 22 1015.6 0 25.8 25.6 42.7 112.6 114.5 397.1
03/09 12:30 33.8 32 11.89 14.8 15 28 1015.8 0 25.4 25.3 42.0 110.5 112.0 388.6
03/09 12:20 33.6 33 12.13 15.1 15 26 1016 0 25.9 25.7 42.9 113.0 115.1 399.1
03/09 12:10 33.3 34 12.3 15.3 11 24 1016.3 0 26.3 26.0 43.7 115.0 117.5 407.5
03/09 12:00 33.8 33 12.26 15.3 11 24 1016.5 0 26.2 25.8 43.3 114.0 116.3 403.5
03/09 11:50 33.5 33 12.07 15 15 22 1016.7 0 25.8 25.6 42.8 112.7 114.6 397.4

Last Refresh: 04-Sep-2026 04:29:32

Bureau of Meteorology